createdAt,value
2023-01-17T00:00:18.718Z,4.75
2023-01-17T00:02:47.045Z,4.10
2023-01-17T00:05:32.563Z,3.65
2023-01-17T00:08:17.778Z,3.53
2023-01-17T00:10:47.328Z,4.35
2023-01-17T00:13:15.239Z,6.45
2023-01-17T00:15:43.483Z,8.43
2023-01-17T00:18:11.415Z,8.45
2023-01-17T00:20:56.740Z,9.32
2023-01-17T00:23:55.547Z,9.50
2023-01-17T00:26:24.886Z,9.95
2023-01-17T00:28:51.685Z,9.30
2023-01-17T00:31:18.608Z,9.07
2023-01-17T00:33:45.448Z,9.38
2023-01-17T00:36:12.267Z,8.50
2023-01-17T00:38:40.406Z,7.82
2023-01-17T00:41:09.292Z,7.57
2023-01-17T00:43:56.370Z,6.97
2023-01-17T00:46:41.581Z,6.45
2023-01-17T00:49:27.699Z,6.63
2023-01-17T00:52:13.120Z,6.75
2023-01-17T00:54:58.271Z,7.18
2023-01-17T00:57:43.787Z,7.90
2023-01-17T01:00:31.900Z,7.47
2023-01-17T01:03:17.009Z,7.47
2023-01-17T01:06:02.531Z,7.68
2023-01-17T01:08:48.641Z,7.25
2023-01-17T01:11:36.066Z,6.45
2023-01-17T01:14:22.430Z,6.03
2023-01-17T01:17:09.453Z,6.47
2023-01-17T01:19:54.657Z,5.00
2023-01-17T01:22:40.077Z,5.25
2023-01-17T01:25:26.007Z,4.43
2023-01-17T01:28:11.467Z,3.90
2023-01-17T01:30:56.642Z,4.40
2023-01-17T01:33:24.734Z,4.47
2023-01-17T01:35:54.676Z,4.88
2023-01-17T01:38:25.384Z,5.07
2023-01-17T01:40:55.843Z,5.85
2023-01-17T01:43:41.301Z,6.72
2023-01-17T01:46:12.298Z,5.60
2023-01-17T01:48:45.384Z,5.57
2023-01-17T01:51:18.359Z,6.43
2023-01-17T01:53:49.052Z,5.38
2023-01-17T01:56:20.098Z,5.05
2023-01-17T01:58:52.609Z,5.15
2023-01-17T02:01:21.092Z,4.95
2023-01-17T02:03:51.129Z,4.75
2023-01-17T02:06:35.945Z,4.93
2023-01-17T02:09:07.596Z,5.65
2023-01-17T02:11:38.836Z,5.85
2023-01-17T02:14:07.040Z,5.80
2023-01-17T02:16:51.270Z,5.80
2023-01-17T02:19:45.808Z,5.40
2023-01-17T02:22:38.072Z,6.00
2023-01-17T02:25:21.537Z,5.85
2023-01-17T02:28:07.720Z,5.70
2023-01-17T02:30:40.607Z,5.75
2023-01-17T02:33:23.523Z,5.72
2023-01-17T02:35:59.720Z,5.22
2023-01-17T02:38:38.049Z,5.78
2023-01-17T02:41:08.042Z,6.20
2023-01-17T02:43:37.437Z,6.13
2023-01-17T02:46:09.561Z,6.57
2023-01-17T02:48:38.278Z,6.28
2023-01-17T02:51:39.006Z,6.43
2023-01-17T02:54:33.606Z,8.05
2023-01-17T02:57:14.851Z,9.00
2023-01-17T02:59:51.099Z,9.02
2023-01-17T03:02:29.121Z,8.95
2023-01-17T03:05:02.758Z,7.60
2023-01-17T03:07:32.690Z,8.00
2023-01-17T03:10:05.119Z,7.28
2023-01-17T03:12:36.232Z,6.97
2023-01-17T03:15:04.289Z,6.70
2023-01-17T03:17:34.129Z,7.70
2023-01-17T03:20:01.944Z,7.90
2023-01-17T03:22:29.753Z,7.80
2023-01-17T03:24:57.721Z,8.20
2023-01-17T03:27:25.573Z,6.43
2023-01-17T03:29:53.439Z,7.57
2023-01-17T03:32:21.288Z,6.47
2023-01-17T03:34:50.627Z,6.43
2023-01-17T03:37:18.599Z,6.53
2023-01-17T03:39:46.423Z,7.25
2023-01-17T03:42:14.290Z,5.53
2023-01-17T03:44:42.123Z,5.47
2023-01-17T03:47:12.115Z,5.53
2023-01-17T03:52:09.343Z,5.10
2023-01-17T03:54:37.151Z,4.75
2023-01-17T03:57:05.193Z,4.57
2023-01-17T03:59:33.987Z,4.55
2023-01-17T04:02:02.217Z,4.57
2023-01-17T04:04:30.186Z,4.30
2023-01-17T04:06:57.992Z,3.67
2023-01-17T04:09:27.201Z,3.80
2023-01-17T04:11:55.253Z,4.05
2023-01-17T04:14:23.291Z,4.65
2023-01-17T04:16:51.131Z,4.00
2023-01-17T04:19:19.281Z,3.70
2023-01-17T04:21:47.226Z,4.15
2023-01-17T04:24:17.729Z,4.13
2023-01-17T04:26:47.069Z,3.15
2023-01-17T04:29:14.882Z,2.75
2023-01-17T04:31:42.793Z,2.17
2023-01-17T04:34:10.757Z,1.60
2023-01-17T04:36:38.691Z,2.00
2023-01-17T04:39:06.548Z,1.70
2023-01-17T04:41:34.496Z,1.60
2023-01-17T04:44:04.321Z,1.38
2023-01-17T04:46:32.551Z,1.50
2023-01-17T04:49:00.469Z,1.30
2023-01-17T04:51:28.397Z,1.20
2023-01-17T04:53:56.478Z,0.90
2023-01-17T04:56:24.304Z,0.70
2023-01-17T04:58:52.313Z,1.10
2023-01-17T05:01:21.645Z,0.93
2023-01-17T05:03:49.658Z,0.80
2023-01-17T05:06:17.682Z,1.20
2023-01-17T05:08:45.559Z,0.73
2023-01-17T05:11:13.453Z,0.60
2023-01-17T05:13:41.270Z,0.70
2023-01-17T05:16:09.184Z,0.70
2023-01-17T05:18:38.479Z,0.50
2023-01-17T05:21:06.685Z,0.40
2023-01-17T05:23:34.672Z,0.50
2023-01-17T05:26:02.577Z,0.50
2023-01-17T05:28:30.364Z,0.57
2023-01-17T05:30:58.354Z,0.60
2023-01-17T05:33:26.528Z,0.57
2023-01-17T05:35:55.972Z,0.50
2023-01-17T05:38:24.107Z,0.38
2023-01-17T05:40:52.057Z,0.40
2023-01-17T05:43:22.073Z,0.50
2023-01-17T05:48:18.428Z,0.55
2023-01-17T05:50:46.278Z,0.55
2023-01-17T05:53:17.275Z,0.50
2023-01-17T05:55:45.550Z,0.43
2023-01-17T05:58:17.324Z,0.75
2023-01-17T06:00:46.177Z,0.65
2023-01-17T06:03:14.348Z,0.45
2023-01-17T06:05:43.029Z,0.47
2023-01-17T06:08:11.301Z,0.50
2023-01-17T06:10:41.014Z,0.68
2023-01-17T06:13:12.207Z,1.23
2023-01-17T06:15:41.080Z,0.60
2023-01-17T06:18:10.614Z,0.75
2023-01-17T06:20:38.758Z,0.70
2023-01-17T06:23:09.039Z,1.58
2023-01-17T06:25:38.735Z,1.38
2023-01-17T06:28:08.477Z,1.15
2023-01-17T06:30:37.222Z,0.98
2023-01-17T06:33:05.603Z,0.90
2023-01-17T06:35:34.043Z,0.80
2023-01-17T06:38:02.030Z,0.90
2023-01-17T06:40:30.715Z,0.90
2023-01-17T06:43:00.903Z,1.00
2023-01-17T06:47:59.697Z,1.08
2023-01-17T06:50:27.925Z,1.50
2023-01-17T06:52:57.157Z,1.52
2023-01-17T06:55:25.093Z,1.00
2023-01-17T06:57:52.940Z,0.90
2023-01-17T07:00:21.353Z,1.10
2023-01-17T07:02:51.852Z,0.90
2023-01-17T07:05:20.521Z,1.02
2023-01-17T07:07:48.610Z,1.10
2023-01-17T07:10:17.461Z,1.00
2023-01-17T07:12:45.450Z,1.10
2023-01-17T07:15:13.913Z,1.30
2023-01-17T07:17:41.787Z,1.30
2023-01-17T07:20:13.582Z,1.65
2023-01-17T07:22:45.298Z,1.35
2023-01-17T07:25:13.904Z,2.10
2023-01-17T07:27:41.729Z,2.28
2023-01-17T07:30:11.153Z,3.30
2023-01-17T07:32:39.008Z,3.50
2023-01-17T07:35:08.119Z,4.05
2023-01-17T07:37:37.380Z,2.95
2023-01-17T07:40:06.030Z,2.80
2023-01-17T07:42:33.904Z,2.20
2023-01-17T07:45:02.206Z,2.85
2023-01-17T07:47:30.260Z,2.90
2023-01-17T07:49:58.064Z,3.33
2023-01-17T07:52:26.090Z,3.70
2023-01-17T07:54:55.311Z,3.40
2023-01-17T07:57:23.393Z,3.03
2023-01-17T07:59:52.331Z,4.40
2023-01-17T08:02:23.457Z,4.05
2023-01-17T08:04:51.505Z,4.00
2023-01-17T08:07:19.325Z,3.63
2023-01-17T08:09:49.775Z,3.85
2023-01-17T08:12:19.132Z,4.25
2023-01-17T08:14:46.974Z,3.55
2023-01-17T08:17:16.473Z,4.50
2023-01-17T08:19:44.717Z,4.40
2023-01-17T08:22:13.229Z,4.00
2023-01-17T08:24:41.828Z,3.63
2023-01-17T08:27:10.304Z,3.60
2023-01-17T08:29:42.045Z,3.75
2023-01-17T08:32:09.977Z,4.05
2023-01-17T08:34:37.824Z,4.20
2023-01-17T08:37:05.662Z,4.35
2023-01-17T08:39:33.500Z,4.40
2023-01-17T08:42:01.728Z,4.80
2023-01-17T08:44:29.470Z,4.90
2023-01-17T08:46:59.105Z,5.65
2023-01-17T08:49:29.646Z,5.38
2023-01-17T08:51:57.543Z,5.47
2023-01-17T08:54:25.354Z,5.55
2023-01-17T08:56:55.523Z,5.80
2023-01-17T09:01:52.477Z,5.78
2023-01-17T09:04:22.166Z,6.33
2023-01-17T09:06:50.354Z,5.90
2023-01-17T09:09:18.774Z,6.15
2023-01-17T09:11:46.796Z,6.40
2023-01-17T09:14:15.538Z,5.95
2023-01-17T09:16:43.491Z,6.38
2023-01-17T09:19:11.597Z,6.72
2023-01-17T09:21:40.986Z,5.93
2023-01-17T09:24:08.936Z,5.50
2023-01-17T09:26:36.886Z,6.38
2023-01-17T09:29:04.762Z,5.97
2023-01-17T09:31:32.846Z,5.78
2023-01-17T09:34:01.319Z,6.32
2023-01-17T09:36:31.834Z,5.72
2023-01-17T09:39:02.064Z,5.43
2023-01-17T09:44:07.605Z,4.53
2023-01-17T09:46:40.573Z,4.47
2023-01-17T09:49:12.958Z,3.97
2023-01-17T09:51:42.170Z,3.72
2023-01-17T09:54:22.832Z,4.47
2023-01-17T09:56:59.187Z,4.00
2023-01-17T09:59:36.887Z,3.70
2023-01-17T10:02:19.651Z,3.60
2023-01-17T10:05:13.580Z,3.55
2023-01-17T10:07:52.742Z,3.55
2023-01-17T10:10:38.095Z,4.63
2023-01-17T10:13:17.581Z,4.22
2023-01-17T10:15:57.722Z,4.47
2023-01-17T10:18:48.752Z,3.72
2023-01-17T10:21:28.200Z,4.65
2023-01-17T10:24:16.593Z,4.57
2023-01-17T10:26:49.914Z,4.20
2023-01-17T10:29:20.272Z,4.55
2023-01-17T10:31:55.902Z,4.75
2023-01-17T10:34:29.286Z,4.78
2023-01-17T10:37:03.117Z,4.80
2023-01-17T10:39:32.168Z,4.68
2023-01-17T10:42:07.807Z,4.82
2023-01-17T10:44:40.904Z,4.75
2023-01-17T10:47:19.757Z,4.88
2023-01-17T10:49:52.074Z,4.97
2023-01-17T10:52:34.526Z,5.03
2023-01-17T10:55:16.506Z,6.22
2023-01-17T10:57:48.722Z,5.53
2023-01-17T11:00:29.957Z,6.00
2023-01-17T11:02:58.351Z,5.78
2023-01-17T11:05:28.748Z,6.47
2023-01-17T11:08:03.140Z,7.00
2023-01-17T11:10:39.942Z,6.43
2023-01-17T11:13:24.756Z,5.90
2023-01-17T11:15:57.858Z,7.47
2023-01-17T11:18:28.754Z,6.63
2023-01-17T11:21:11.390Z,7.65
2023-01-17T11:23:42.894Z,7.22
2023-01-17T11:26:13.933Z,8.70
2023-01-17T11:28:43.639Z,7.82
2023-01-17T11:31:26.957Z,7.95
2023-01-17T11:34:14.489Z,7.78
2023-01-17T11:36:43.048Z,9.20
2023-01-17T11:39:27.807Z,9.65
2023-01-17T11:41:55.900Z,8.18
2023-01-17T11:44:28.360Z,8.02
2023-01-17T11:47:19.251Z,8.52
2023-01-17T11:49:49.413Z,7.70
2023-01-17T11:52:25.397Z,7.57
2023-01-17T11:54:56.017Z,7.65
2023-01-17T11:57:27.623Z,8.63
2023-01-17T12:00:05.122Z,7.63
2023-01-17T12:03:08.106Z,7.68
2023-01-17T12:05:51.391Z,7.55
2023-01-17T12:08:35.286Z,7.30
2023-01-17T12:11:13.092Z,7.82
2023-01-17T12:14:01.294Z,8.10
2023-01-17T12:16:54.970Z,8.10
2023-01-17T12:19:36.607Z,9.13
2023-01-17T12:22:20.674Z,12.15
2023-01-17T12:25:02.666Z,9.43
2023-01-17T12:27:45.606Z,7.53
2023-01-17T12:30:25.444Z,8.82
2023-01-17T12:33:10.349Z,8.52
2023-01-17T12:35:43.431Z,10.43
2023-01-17T12:38:27.318Z,8.60
2023-01-17T12:41:05.321Z,8.82
2023-01-17T12:43:37.244Z,9.27
2023-01-17T12:46:12.831Z,9.00
2023-01-17T12:48:42.343Z,8.23
2023-01-17T12:51:16.578Z,7.38
2023-01-17T12:53:56.442Z,7.70
2023-01-17T12:56:30.144Z,7.35
2023-01-17T12:59:07.512Z,6.95
2023-01-17T13:01:39.833Z,6.20
2023-01-17T13:04:19.561Z,6.05
2023-01-17T13:06:57.666Z,6.13
2023-01-17T13:09:27.997Z,6.22
2023-01-17T13:12:01.616Z,6.85
2023-01-17T13:14:29.747Z,6.65
2023-01-17T13:17:00.388Z,5.43
2023-01-17T13:19:41.357Z,5.63
2023-01-17T13:22:17.407Z,5.63
2023-01-17T13:24:53.617Z,5.30
2023-01-17T13:27:46.559Z,4.97
2023-01-17T13:30:43.303Z,4.78
2023-01-17T13:33:34.311Z,5.13
2023-01-17T13:36:29.828Z,4.47
2023-01-17T13:39:29.840Z,4.93
2023-01-17T13:42:10.403Z,5.13
2023-01-17T13:44:38.637Z,5.20
2023-01-17T13:47:28.132Z,5.20
2023-01-17T13:49:57.638Z,5.15
2023-01-17T13:52:33.556Z,5.00
2023-01-17T13:55:03.521Z,4.72
2023-01-17T13:57:39.934Z,5.35
2023-01-17T14:00:59.414Z,5.45
2023-01-17T14:04:04.065Z,5.10
2023-01-17T14:06:38.147Z,6.90
2023-01-17T14:09:14.166Z,5.00
2023-01-17T14:11:54.422Z,4.35
2023-01-17T14:17:48.260Z,4.30
2023-01-17T14:20:38.352Z,4.85
2023-01-17T14:23:27.262Z,4.63
2023-01-17T14:25:59.095Z,4.50
2023-01-17T14:28:33.354Z,4.40
2023-01-17T14:31:03.361Z,4.22
2023-01-17T14:33:37.398Z,4.35
2023-01-17T14:36:07.415Z,4.53
2023-01-17T14:38:43.623Z,4.25
2023-01-17T14:41:16.309Z,5.00
2023-01-17T14:43:45.381Z,4.45
2023-01-17T14:46:19.805Z,4.25
2023-01-17T14:48:47.835Z,4.57
2023-01-17T14:51:21.485Z,6.10
2023-01-17T14:53:59.000Z,7.50
2023-01-17T14:56:29.478Z,6.85
2023-01-17T14:59:14.657Z,5.70
2023-01-17T15:01:43.062Z,6.63
2023-01-17T15:04:25.940Z,8.48
2023-01-17T15:06:54.739Z,7.75
2023-01-17T15:09:26.898Z,8.75
2023-01-17T15:11:57.308Z,7.10
2023-01-17T15:14:29.964Z,7.22
2023-01-17T15:16:58.224Z,6.78
2023-01-17T15:19:26.744Z,7.22
2023-01-17T15:21:55.783Z,11.77
2023-01-17T15:24:28.815Z,16.13
2023-01-17T15:26:57.272Z,16.60
2023-01-17T15:29:27.784Z,21.35
2023-01-17T15:31:59.122Z,14.38
2023-01-17T15:34:30.337Z,9.10
2023-01-17T15:37:01.529Z,11.18
2023-01-17T15:39:32.894Z,5.57
2023-01-17T15:42:04.110Z,5.43
2023-01-17T15:44:47.417Z,5.85
2023-01-17T15:47:29.892Z,10.05
2023-01-17T15:49:58.026Z,14.38
2023-01-17T15:52:26.038Z,7.00
2023-01-17T15:54:59.653Z,8.13
2023-01-17T15:57:29.721Z,5.55
2023-01-17T16:00:01.923Z,8.68
2023-01-17T16:02:42.993Z,12.35
2023-01-17T16:05:44.756Z,10.35
2023-01-17T16:08:29.057Z,11.77
2023-01-17T16:11:02.152Z,12.77
2023-01-17T16:13:32.045Z,10.93
2023-01-17T16:16:14.687Z,13.70
2023-01-17T16:18:43.567Z,12.82
2023-01-17T16:21:24.272Z,12.85
2023-01-17T16:23:52.894Z,14.25
2023-01-17T16:26:22.729Z,30.00
2023-01-17T16:28:51.389Z,17.98
2023-01-17T16:31:20.045Z,12.70
2023-01-17T16:33:50.769Z,11.55
2023-01-17T16:36:20.902Z,11.27
2023-01-17T16:41:19.080Z,9.43
2023-01-17T16:43:58.514Z,10.50
2023-01-17T16:46:27.112Z,11.68
2023-01-17T16:48:55.137Z,11.40
2023-01-17T16:51:23.303Z,11.15
2023-01-17T16:53:51.145Z,12.10
2023-01-17T16:56:20.692Z,10.98
2023-01-17T16:58:52.155Z,18.65
2023-01-17T17:01:21.284Z,18.25
2023-01-17T17:03:49.609Z,20.93
2023-01-17T17:06:17.470Z,24.08
2023-01-17T17:08:45.903Z,21.40
2023-01-17T17:11:16.464Z,20.35
2023-01-17T17:13:45.789Z,18.70
2023-01-17T17:16:17.738Z,18.17
2023-01-17T17:18:47.359Z,20.45
2023-01-17T17:21:15.970Z,21.75
2023-01-17T17:23:44.031Z,22.95
2023-01-17T17:26:11.949Z,19.25
2023-01-17T17:28:39.797Z,21.45
2023-01-17T17:31:10.416Z,25.98
2023-01-17T17:33:39.931Z,18.52
2023-01-17T17:36:10.869Z,19.25
2023-01-17T17:38:50.788Z,14.25
2023-01-17T17:41:21.049Z,14.10
2023-01-17T17:46:16.790Z,12.75
2023-01-17T17:48:45.985Z,15.40
2023-01-17T17:51:23.463Z,31.05
2023-01-17T17:53:52.649Z,24.33
2023-01-17T17:56:20.842Z,23.42
2023-01-17T17:58:49.337Z,19.30
2023-01-17T18:01:17.353Z,18.10
2023-01-17T18:03:46.683Z,17.27
2023-01-17T18:06:17.607Z,16.90
2023-01-17T18:08:46.069Z,18.58
2023-01-17T18:11:18.376Z,17.77
2023-01-17T18:13:50.505Z,17.40
2023-01-17T18:16:21.243Z,18.33
2023-01-17T18:18:52.354Z,22.45
2023-01-17T18:21:23.816Z,25.92
2023-01-17T18:23:54.455Z,21.20
2023-01-17T18:26:24.782Z,23.48
2023-01-17T18:28:53.257Z,25.05
2023-01-17T18:31:21.414Z,23.20
2023-01-17T18:33:50.927Z,22.55
2023-01-17T18:36:19.651Z,22.50
2023-01-17T18:38:48.744Z,19.67
2023-01-17T18:41:18.639Z,22.75
2023-01-17T18:43:46.524Z,21.98
2023-01-17T18:46:14.886Z,31.67
2023-01-17T18:48:43.019Z,29.40
2023-01-17T18:51:14.110Z,26.42
2023-01-17T18:53:44.014Z,31.35
2023-01-17T18:56:13.922Z,41.00
2023-01-17T18:58:43.519Z,35.95
2023-01-17T19:01:13.908Z,36.38
2023-01-17T19:03:43.859Z,34.72
2023-01-17T19:06:15.490Z,38.95
2023-01-17T19:08:44.197Z,34.17
2023-01-17T19:11:12.379Z,33.47
2023-01-17T19:13:41.849Z,30.58
2023-01-17T19:16:13.833Z,25.77
2023-01-17T19:18:42.142Z,30.02
2023-01-17T19:21:11.565Z,32.28
2023-01-17T19:23:41.328Z,32.17
2023-01-17T19:26:10.176Z,31.95
2023-01-17T19:28:39.572Z,31.98
2023-01-17T19:31:09.904Z,31.00
2023-01-17T19:33:39.499Z,28.38
2023-01-17T19:36:10.514Z,25.17
2023-01-17T19:38:40.374Z,29.27
2023-01-17T19:41:10.134Z,30.17
2023-01-17T19:43:38.247Z,31.23
2023-01-17T19:46:08.047Z,28.40
2023-01-17T19:48:36.648Z,36.00
2023-01-17T19:51:06.463Z,35.38
2023-01-17T19:53:35.688Z,34.00
2023-01-17T19:56:07.920Z,31.35
2023-01-17T19:58:36.353Z,32.15
2023-01-17T20:01:09.435Z,29.48
2023-01-17T20:03:38.419Z,22.10
2023-01-17T20:06:07.447Z,18.02
2023-01-17T20:08:35.823Z,16.70
2023-01-17T20:11:06.670Z,16.48
2023-01-17T20:13:34.653Z,17.73
2023-01-17T20:16:03.416Z,15.10
2023-01-17T20:18:31.517Z,15.30
2023-01-17T20:21:03.225Z,15.70
2023-01-17T20:23:35.445Z,13.20
2023-01-17T20:26:04.645Z,12.43
2023-01-17T20:28:35.607Z,13.10
2023-01-17T20:31:08.885Z,15.10
2023-01-17T20:33:37.345Z,13.38
2023-01-17T20:36:10.438Z,40.28
2023-01-17T20:38:44.736Z,16.15
2023-01-17T20:41:14.494Z,15.85
2023-01-17T20:43:44.529Z,15.02
2023-01-17T20:48:45.482Z,27.30
2023-01-17T20:51:13.702Z,27.48
2023-01-17T20:53:43.382Z,26.10
2023-01-17T20:56:13.133Z,25.98
2023-01-17T20:58:41.907Z,26.92
2023-01-17T21:01:13.018Z,26.95
2023-01-17T21:03:41.131Z,32.45
2023-01-17T21:06:11.251Z,37.03
2023-01-17T21:11:09.076Z,35.13
2023-01-17T21:13:36.883Z,33.72
2023-01-17T21:16:05.149Z,32.35
2023-01-17T21:18:35.334Z,33.42
2023-01-17T21:23:31.304Z,47.63
2023-01-17T21:25:59.233Z,47.05
2023-01-17T21:28:29.135Z,45.05
2023-01-17T21:30:57.977Z,45.38
2023-01-17T21:33:29.280Z,38.10
2023-01-17T21:36:07.800Z,29.65
2023-01-17T21:38:35.865Z,25.90
2023-01-17T21:41:03.957Z,24.35
2023-01-17T21:43:31.975Z,24.83
2023-01-17T21:46:03.423Z,22.92
2023-01-17T21:48:31.546Z,25.33
2023-01-17T21:51:06.073Z,30.27
2023-01-17T21:53:35.455Z,27.98
2023-01-17T21:56:25.945Z,30.02
2023-01-17T21:58:56.813Z,34.47
2023-01-17T22:01:26.239Z,38.67
2023-01-17T22:03:56.190Z,40.00
2023-01-17T22:06:27.680Z,32.35
2023-01-17T22:08:57.341Z,34.47
2023-01-17T22:11:27.315Z,32.22
2023-01-17T22:13:56.740Z,30.92
2023-01-17T22:16:26.806Z,32.10
2023-01-17T22:18:54.946Z,30.00
2023-01-17T22:21:26.147Z,28.40
2023-01-17T22:23:56.363Z,26.83
2023-01-17T22:26:26.253Z,25.45
2023-01-17T22:28:54.728Z,24.48
2023-01-17T22:31:24.699Z,26.98
2023-01-17T22:33:54.935Z,27.08
2023-01-17T22:36:23.465Z,24.05
2023-01-17T22:38:53.415Z,22.60
2023-01-17T22:41:23.223Z,19.30
2023-01-17T22:43:52.770Z,19.30
2023-01-17T22:46:23.059Z,20.80
2023-01-17T22:48:52.201Z,19.63
2023-01-17T22:51:21.659Z,19.00
2023-01-17T22:53:51.015Z,24.88
2023-01-17T22:56:22.561Z,26.30
2023-01-17T22:58:51.194Z,26.20
2023-01-17T23:01:20.815Z,22.15
2023-01-17T23:03:53.363Z,25.73
2023-01-17T23:06:25.414Z,32.05
2023-01-17T23:08:55.359Z,36.97
2023-01-17T23:11:43.789Z,26.52
2023-01-17T23:14:17.440Z,26.67
2023-01-17T23:17:05.692Z,23.35
2023-01-17T23:19:35.895Z,23.00
2023-01-17T23:22:19.094Z,22.92
2023-01-17T23:24:49.574Z,29.83
2023-01-17T23:27:38.913Z,24.00
2023-01-17T23:30:11.118Z,25.35
2023-01-17T23:32:39.067Z,25.65
2023-01-17T23:35:07.782Z,25.90
2023-01-17T23:37:52.907Z,24.70
2023-01-17T23:40:20.793Z,22.20
2023-01-17T23:43:07.517Z,21.60
2023-01-17T23:45:36.779Z,19.13
2023-01-17T23:48:09.208Z,19.63
2023-01-17T23:50:38.178Z,18.90
2023-01-17T23:53:07.952Z,18.88
2023-01-17T23:55:37.323Z,17.73
2023-01-17T23:58:08.441Z,16.83
